createdAt,value
2022-12-24T00:01:21.382Z,6.50
2022-12-24T00:03:49.640Z,6.60
2022-12-24T00:06:23.898Z,6.50
2022-12-24T00:08:52.080Z,6.40
2022-12-24T00:11:20.640Z,6.30
2022-12-24T00:13:48.863Z,6.20
2022-12-24T00:16:16.348Z,6.30
2022-12-24T00:18:46.695Z,6.30
2022-12-24T00:21:16.161Z,6.30
2022-12-24T00:23:43.896Z,6.30
2022-12-24T00:26:12.109Z,6.20
2022-12-24T00:28:39.972Z,6.10
2022-12-24T00:31:17.601Z,6.20
2022-12-24T00:33:47.440Z,6.30
2022-12-24T00:36:15.496Z,6.30
2022-12-24T00:38:43.193Z,6.20
2022-12-24T00:41:25.177Z,6.30
2022-12-24T00:44:10.318Z,6.20
2022-12-24T00:46:40.799Z,6.20
2022-12-24T00:49:10.116Z,6.40
2022-12-24T00:51:38.063Z,6.40
2022-12-24T00:54:06.630Z,6.40
2022-12-24T00:56:34.605Z,6.50
2022-12-24T00:59:02.343Z,6.50
2022-12-24T01:01:30.460Z,6.40
2022-12-24T01:04:17.896Z,6.40
2022-12-24T01:06:45.546Z,6.40
2022-12-24T01:09:13.238Z,6.40
2022-12-24T01:11:40.721Z,6.30
2022-12-24T01:14:08.216Z,6.30
2022-12-24T01:16:35.718Z,6.30
2022-12-24T01:19:03.493Z,6.30
2022-12-24T01:21:30.926Z,6.30
2022-12-24T01:23:58.386Z,6.30
2022-12-24T01:26:25.843Z,6.30
2022-12-24T01:28:53.769Z,6.30
2022-12-24T01:31:21.375Z,6.40
2022-12-24T01:33:49.729Z,6.30
2022-12-24T01:36:17.557Z,6.30
2022-12-24T01:38:45.079Z,6.30
2022-12-24T01:41:40.345Z,6.40
2022-12-24T01:44:33.404Z,6.50
2022-12-24T01:47:19.983Z,6.50
2022-12-24T01:50:02.618Z,6.40
2022-12-24T01:52:36.021Z,6.30
2022-12-24T01:55:15.157Z,6.30
2022-12-24T01:58:00.949Z,6.20
2022-12-24T02:00:28.438Z,6.20
2022-12-24T02:02:56.296Z,6.20
2022-12-24T02:05:42.894Z,6.20
2022-12-24T02:08:11.344Z,6.20
2022-12-24T02:10:38.790Z,6.30
2022-12-24T02:13:06.914Z,6.30
2022-12-24T02:16:03.492Z,6.40
2022-12-24T02:18:50.904Z,6.30
2022-12-24T02:22:04.093Z,6.30
2022-12-24T02:24:52.892Z,6.30
2022-12-24T02:27:43.376Z,6.20
2022-12-24T02:30:27.426Z,6.30
2022-12-24T02:33:04.875Z,6.20
2022-12-24T02:35:56.262Z,6.40
2022-12-24T02:38:40.038Z,6.30
2022-12-24T02:41:23.630Z,6.30
2022-12-24T02:43:53.990Z,6.30
2022-12-24T02:46:28.796Z,6.30
2022-12-24T02:48:59.553Z,6.30
2022-12-24T02:51:26.936Z,6.30
2022-12-24T02:53:54.414Z,6.20
2022-12-24T02:57:03.645Z,6.20
2022-12-24T03:00:10.408Z,6.10
2022-12-24T03:02:52.567Z,6.10
2022-12-24T03:05:31.530Z,6.10
2022-12-24T03:08:02.619Z,6.20
2022-12-24T03:11:00.011Z,6.20
2022-12-24T03:13:28.966Z,6.30
2022-12-24T03:15:56.570Z,6.30
2022-12-24T03:18:27.059Z,6.20
2022-12-24T03:21:08.281Z,6.10
2022-12-24T03:23:36.275Z,6.20
2022-12-24T03:26:09.809Z,6.10
2022-12-24T03:28:40.573Z,6.30
2022-12-24T03:31:09.478Z,6.30
2022-12-24T03:33:37.966Z,6.20
2022-12-24T03:36:06.585Z,6.20
2022-12-24T03:38:34.673Z,6.30
2022-12-24T03:41:02.528Z,6.30
2022-12-24T03:43:30.883Z,6.30
2022-12-24T03:45:58.650Z,6.30
2022-12-24T03:48:32.407Z,6.30
2022-12-24T03:51:00.261Z,6.20
2022-12-24T03:53:27.668Z,6.30
2022-12-24T03:55:55.077Z,6.50
2022-12-24T03:58:22.541Z,6.50
2022-12-24T04:00:49.978Z,6.30
2022-12-24T04:03:17.433Z,6.30
2022-12-24T04:05:44.940Z,6.40
2022-12-24T04:08:12.330Z,6.50
2022-12-24T04:10:39.732Z,6.50
2022-12-24T04:13:07.158Z,6.60
2022-12-24T04:15:34.549Z,6.40
2022-12-24T04:18:02.002Z,6.50
2022-12-24T04:20:29.479Z,6.40
2022-12-24T04:22:56.983Z,6.30
2022-12-24T04:25:24.438Z,6.20
2022-12-24T04:27:51.887Z,6.40
2022-12-24T04:30:19.492Z,6.40
2022-12-24T04:32:46.980Z,6.40
2022-12-24T04:35:14.518Z,6.40
2022-12-24T04:37:41.935Z,6.60
2022-12-24T04:40:10.292Z,6.60
2022-12-24T04:42:38.087Z,6.60
2022-12-24T04:45:06.101Z,6.80
2022-12-24T04:47:33.533Z,6.80
2022-12-24T04:50:01.748Z,6.90
2022-12-24T04:52:29.442Z,7.00
2022-12-24T04:54:56.914Z,7.10
2022-12-24T04:57:24.366Z,7.10
2022-12-24T04:59:51.794Z,7.20
2022-12-24T05:02:19.496Z,7.30
2022-12-24T05:04:47.003Z,7.40
2022-12-24T05:07:14.498Z,7.50
2022-12-24T05:09:41.972Z,7.50
2022-12-24T05:12:09.866Z,7.60
2022-12-24T05:14:37.498Z,7.70
2022-12-24T05:17:04.978Z,7.70
2022-12-24T05:19:32.882Z,7.80
2022-12-24T05:22:19.035Z,7.80
2022-12-24T05:25:05.214Z,7.80
2022-12-24T05:27:32.727Z,7.80
2022-12-24T05:30:00.470Z,7.90
2022-12-24T05:32:28.869Z,7.80
2022-12-24T05:34:56.393Z,7.90
2022-12-24T05:37:23.832Z,7.90
2022-12-24T05:39:51.239Z,7.80
2022-12-24T05:42:18.696Z,7.90
2022-12-24T05:44:46.074Z,7.80
2022-12-24T05:47:13.497Z,7.90
2022-12-24T05:49:40.942Z,7.80
2022-12-24T05:52:08.358Z,7.90
2022-12-24T05:54:35.768Z,7.80
2022-12-24T05:57:03.316Z,7.90
2022-12-24T05:59:30.725Z,7.90
2022-12-24T06:01:58.308Z,7.90
2022-12-24T06:04:29.003Z,7.90
2022-12-24T06:06:56.841Z,7.90
2022-12-24T06:09:24.274Z,7.90
2022-12-24T06:11:51.663Z,7.90
2022-12-24T06:14:19.088Z,7.80
2022-12-24T06:16:46.461Z,7.90
2022-12-24T06:19:13.886Z,7.90
2022-12-24T06:21:41.338Z,7.80
2022-12-24T06:24:08.907Z,7.80
2022-12-24T06:26:36.549Z,7.80
2022-12-24T06:29:04.056Z,7.90
2022-12-24T06:31:31.516Z,7.90
2022-12-24T06:33:59.033Z,7.90
2022-12-24T06:36:27.056Z,7.90
2022-12-24T06:38:55.534Z,7.90
2022-12-24T06:41:24.123Z,7.90
2022-12-24T06:43:53.642Z,7.90
2022-12-24T06:46:22.153Z,7.90
2022-12-24T06:48:50.132Z,7.90
2022-12-24T06:51:20.057Z,8.00
2022-12-24T06:53:50.916Z,8.00
2022-12-24T06:56:20.019Z,8.00
2022-12-24T06:58:48.255Z,8.00
2022-12-24T07:01:18.232Z,8.00
2022-12-24T07:03:46.260Z,8.00
2022-12-24T07:06:29.165Z,8.00
2022-12-24T07:08:56.755Z,8.00
2022-12-24T07:11:25.726Z,8.00
2022-12-24T07:13:53.578Z,8.00
2022-12-24T07:16:21.821Z,8.00
2022-12-24T07:18:49.395Z,8.00
2022-12-24T07:21:16.884Z,8.00
2022-12-24T07:23:44.296Z,8.00
2022-12-24T07:26:12.348Z,8.00
2022-12-24T07:28:39.893Z,8.00
2022-12-24T07:31:07.413Z,8.00
2022-12-24T07:33:34.874Z,7.90
2022-12-24T07:36:05.605Z,7.90
2022-12-24T07:38:33.792Z,7.90
2022-12-24T07:41:01.382Z,7.90
2022-12-24T07:43:29.270Z,7.90
2022-12-24T07:45:59.776Z,7.90
2022-12-24T07:48:29.989Z,7.90
2022-12-24T07:50:58.240Z,7.90
2022-12-24T07:53:28.106Z,7.80
2022-12-24T07:55:55.810Z,7.80
2022-12-24T07:58:24.417Z,7.80
2022-12-24T08:01:01.140Z,7.70
2022-12-24T08:03:28.724Z,7.80
2022-12-24T08:05:56.366Z,7.80
2022-12-24T08:08:23.784Z,7.80
2022-12-24T08:10:52.046Z,7.80
2022-12-24T08:13:19.611Z,7.80
2022-12-24T08:15:47.166Z,7.80
2022-12-24T08:18:14.607Z,7.80
2022-12-24T08:20:42.102Z,7.70
2022-12-24T08:23:10.324Z,7.80
2022-12-24T08:25:38.486Z,7.80
2022-12-24T08:28:06.546Z,7.70
2022-12-24T08:30:34.710Z,7.70
2022-12-24T08:33:02.349Z,7.70
2022-12-24T08:35:30.105Z,7.70
2022-12-24T08:37:57.621Z,7.70
2022-12-24T08:40:25.188Z,7.60
2022-12-24T08:42:53.043Z,7.60
2022-12-24T08:45:20.666Z,7.50
2022-12-24T08:47:48.157Z,7.50
2022-12-24T08:50:15.780Z,7.50
2022-12-24T08:52:43.165Z,7.50
2022-12-24T08:55:10.642Z,7.50
2022-12-24T08:57:38.642Z,7.50
2022-12-24T09:00:07.976Z,7.50
2022-12-24T09:02:35.835Z,7.50
2022-12-24T09:05:04.020Z,7.50
2022-12-24T09:07:31.556Z,7.50
2022-12-24T09:09:58.958Z,7.50
2022-12-24T09:12:26.426Z,7.50
2022-12-24T09:14:59.553Z,7.50
2022-12-24T09:17:28.803Z,7.50
2022-12-24T09:19:56.184Z,7.50
2022-12-24T09:22:23.713Z,7.50
2022-12-24T09:24:51.123Z,7.40
2022-12-24T09:27:18.530Z,7.40
2022-12-24T09:29:46.008Z,7.40
2022-12-24T09:32:13.510Z,7.40
2022-12-24T09:34:41.037Z,7.30
2022-12-24T09:37:08.513Z,7.30
2022-12-24T09:39:35.948Z,7.30
2022-12-24T09:42:19.533Z,7.20
2022-12-24T09:45:28.903Z,7.20
2022-12-24T09:48:12.096Z,7.10
2022-12-24T09:51:09.008Z,7.10
2022-12-24T09:53:48.376Z,7.10
2022-12-24T09:56:23.413Z,7.20
2022-12-24T09:59:06.079Z,7.20
2022-12-24T10:01:35.254Z,7.30
2022-12-24T10:04:13.050Z,7.30
2022-12-24T10:06:49.223Z,7.40
2022-12-24T10:09:48.160Z,7.30
2022-12-24T10:12:36.107Z,7.20
2022-12-24T10:15:09.280Z,7.30
2022-12-24T10:18:18.431Z,7.20
2022-12-24T10:21:04.822Z,7.20
2022-12-24T10:23:50.377Z,7.20
2022-12-24T10:26:23.558Z,7.20
2022-12-24T10:29:26.691Z,7.20
2022-12-24T10:32:10.373Z,7.20
2022-12-24T10:34:46.291Z,7.10
2022-12-24T10:37:22.909Z,7.10
2022-12-24T10:39:50.794Z,7.10
2022-12-24T10:42:19.397Z,7.10
2022-12-24T10:44:58.122Z,7.10
2022-12-24T10:47:26.224Z,7.10
2022-12-24T10:49:58.886Z,7.20
2022-12-24T10:52:34.093Z,7.20
2022-12-24T10:55:16.446Z,7.20
2022-12-24T10:57:45.599Z,7.20
2022-12-24T11:00:30.004Z,7.10
2022-12-24T11:03:13.330Z,7.10
2022-12-24T11:05:41.117Z,7.10
2022-12-24T11:08:15.605Z,7.10
2022-12-24T11:11:01.320Z,7.10
2022-12-24T11:13:39.075Z,7.10
2022-12-24T11:16:07.255Z,7.10
2022-12-24T11:18:51.647Z,7.10
2022-12-24T11:21:28.046Z,7.10
2022-12-24T11:24:14.462Z,7.10
2022-12-24T11:26:44.172Z,7.10
2022-12-24T11:29:23.347Z,7.10
2022-12-24T11:31:55.531Z,7.10
2022-12-24T11:34:33.953Z,7.10
2022-12-24T11:37:24.620Z,7.10
2022-12-24T11:39:57.681Z,7.10
2022-12-24T11:42:38.313Z,7.10
2022-12-24T11:45:25.795Z,7.30
2022-12-24T11:47:54.421Z,7.20
2022-12-24T11:50:38.080Z,7.20
2022-12-24T11:53:24.387Z,7.40
2022-12-24T11:55:57.617Z,7.40
2022-12-24T11:58:52.565Z,7.40
2022-12-24T12:02:00.846Z,7.40
2022-12-24T12:04:35.495Z,7.40
2022-12-24T12:07:19.251Z,7.40
2022-12-24T12:10:00.104Z,7.40
2022-12-24T12:12:32.635Z,7.50
2022-12-24T12:15:30.256Z,7.40
2022-12-24T12:18:11.669Z,7.40
2022-12-24T12:21:06.806Z,7.40
2022-12-24T12:24:08.429Z,7.40
2022-12-24T12:26:36.346Z,7.40
2022-12-24T12:29:32.654Z,7.40
2022-12-24T12:32:28.792Z,7.40
2022-12-24T12:35:21.178Z,7.40
2022-12-24T12:38:21.574Z,7.40
2022-12-24T12:41:23.159Z,7.50
2022-12-24T12:44:14.806Z,7.50
2022-12-24T12:47:14.021Z,7.50
2022-12-24T12:49:56.221Z,7.50
2022-12-24T12:53:24.827Z,7.50
2022-12-24T12:56:10.551Z,7.60
2022-12-24T12:58:49.707Z,7.60
2022-12-24T13:01:27.264Z,7.60
2022-12-24T13:04:11.320Z,7.70
2022-12-24T13:07:06.010Z,7.70
2022-12-24T13:10:28.807Z,7.80
2022-12-24T13:13:18.572Z,7.80
2022-12-24T13:16:33.615Z,7.80
2022-12-24T13:19:12.989Z,7.90
2022-12-24T13:21:46.319Z,8.10
2022-12-24T13:24:26.844Z,8.20
2022-12-24T13:27:27.909Z,8.20
2022-12-24T13:30:09.159Z,8.30
2022-12-24T13:32:58.827Z,8.30
2022-12-24T13:35:38.426Z,8.20
2022-12-24T13:38:28.005Z,8.20
2022-12-24T13:40:56.262Z,8.20
2022-12-24T13:43:23.692Z,8.20
2022-12-24T13:45:52.560Z,8.20
2022-12-24T13:48:38.269Z,8.20
2022-12-24T13:51:25.318Z,8.20
2022-12-24T13:53:59.359Z,8.20
2022-12-24T13:56:29.304Z,8.20
2022-12-24T13:59:18.169Z,8.20
2022-12-24T14:01:46.066Z,8.10
2022-12-24T14:04:29.098Z,8.10
2022-12-24T14:07:00.312Z,8.00
2022-12-24T14:09:29.888Z,8.00
2022-12-24T14:12:00.301Z,8.00
2022-12-24T14:14:32.765Z,8.00
2022-12-24T14:17:25.453Z,8.00
2022-12-24T14:20:08.074Z,8.00
2022-12-24T14:22:45.724Z,7.90
2022-12-24T14:25:24.280Z,8.00
2022-12-24T14:28:04.743Z,8.00
2022-12-24T14:30:32.677Z,8.00
2022-12-24T14:33:00.142Z,7.90
2022-12-24T14:35:31.368Z,7.90
2022-12-24T14:38:02.511Z,7.80
2022-12-24T14:40:33.990Z,7.80
2022-12-24T14:43:27.116Z,7.70
2022-12-24T14:46:32.093Z,7.60
2022-12-24T14:49:27.739Z,7.60
2022-12-24T14:52:54.610Z,7.60
2022-12-24T14:55:43.785Z,7.70
2022-12-24T14:58:32.879Z,7.70
2022-12-24T15:01:25.122Z,7.70
2022-12-24T15:04:10.495Z,7.70
2022-12-24T15:06:48.134Z,7.80
2022-12-24T15:09:23.936Z,7.80
2022-12-24T15:12:03.558Z,7.90
2022-12-24T15:14:40.587Z,7.90
2022-12-24T15:17:08.913Z,7.90
2022-12-24T15:19:52.672Z,7.80
2022-12-24T15:22:28.101Z,7.80
2022-12-24T15:24:55.763Z,7.70
2022-12-24T15:27:27.213Z,7.70
2022-12-24T15:29:58.034Z,7.70
2022-12-24T15:32:25.609Z,7.80
2022-12-24T15:34:55.610Z,7.80
2022-12-24T15:37:52.173Z,7.80
2022-12-24T15:40:25.116Z,7.70
2022-12-24T15:42:53.420Z,7.70
2022-12-24T15:45:27.287Z,7.60
2022-12-24T15:48:11.875Z,7.50
2022-12-24T15:50:46.526Z,7.50
2022-12-24T15:53:26.965Z,7.50
2022-12-24T15:56:14.425Z,7.50
2022-12-24T15:58:44.786Z,7.60
2022-12-24T16:01:15.637Z,7.60
2022-12-24T16:03:52.079Z,7.60
2022-12-24T16:06:20.681Z,7.60
2022-12-24T16:08:48.599Z,7.50
2022-12-24T16:11:20.097Z,7.50
2022-12-24T16:14:20.409Z,7.40
2022-12-24T16:16:51.109Z,7.30
2022-12-24T16:19:26.774Z,7.20
2022-12-24T16:22:20.748Z,7.10
2022-12-24T16:24:48.543Z,7.10
2022-12-24T16:27:16.020Z,7.10
2022-12-24T16:29:43.491Z,7.10
2022-12-24T16:32:35.205Z,7.20
2022-12-24T16:35:05.937Z,7.10
2022-12-24T16:37:33.361Z,7.20
2022-12-24T16:40:01.406Z,7.30
2022-12-24T16:42:47.383Z,7.40
2022-12-24T16:45:14.877Z,7.40
2022-12-24T16:47:43.540Z,7.40
2022-12-24T16:50:17.406Z,7.40
2022-12-24T16:52:45.325Z,7.40
2022-12-24T16:55:15.374Z,7.40
2022-12-24T16:57:43.998Z,7.40
2022-12-24T17:00:20.069Z,7.50
2022-12-24T17:02:49.208Z,7.40
2022-12-24T17:05:17.172Z,7.40
2022-12-24T17:07:44.680Z,7.40
2022-12-24T17:10:14.752Z,7.30
2022-12-24T17:12:43.464Z,7.30
2022-12-24T17:15:11.336Z,7.20
2022-12-24T17:17:38.806Z,7.30
2022-12-24T17:20:07.529Z,7.30
2022-12-24T17:22:35.986Z,7.30
2022-12-24T17:25:04.308Z,7.30
2022-12-24T17:27:31.820Z,7.30
2022-12-24T17:29:59.582Z,7.30
2022-12-24T17:32:27.788Z,7.30
2022-12-24T17:34:55.271Z,7.30
2022-12-24T17:37:22.756Z,7.30
2022-12-24T17:39:50.285Z,7.20
2022-12-24T17:42:19.113Z,7.20
2022-12-24T17:44:46.601Z,7.10
2022-12-24T17:47:16.683Z,7.10
2022-12-24T17:49:46.289Z,7.00
2022-12-24T17:52:13.810Z,7.00
2022-12-24T17:54:41.238Z,7.00
2022-12-24T17:57:08.744Z,6.90
2022-12-24T17:59:38.904Z,6.90
2022-12-24T18:02:06.783Z,6.80
2022-12-24T18:04:34.255Z,6.80
2022-12-24T18:07:06.181Z,6.80
2022-12-24T18:09:36.075Z,6.80
2022-12-24T18:12:05.002Z,6.80
2022-12-24T18:14:32.413Z,6.80
2022-12-24T18:17:02.010Z,6.80
2022-12-24T18:19:29.433Z,6.80
2022-12-24T18:21:57.356Z,6.80
2022-12-24T18:24:24.922Z,6.80
2022-12-24T18:26:52.625Z,6.80
2022-12-24T18:29:45.756Z,6.80
2022-12-24T18:32:16.980Z,6.80
2022-12-24T18:34:44.593Z,6.80
2022-12-24T18:37:12.008Z,6.90
2022-12-24T18:39:39.450Z,6.90
2022-12-24T18:42:06.924Z,6.80
2022-12-24T18:44:34.291Z,6.90
2022-12-24T18:47:01.882Z,6.80
2022-12-24T18:49:29.330Z,6.80
2022-12-24T18:51:56.797Z,6.80
2022-12-24T18:54:24.216Z,6.70
2022-12-24T18:56:52.071Z,6.70
2022-12-24T18:59:19.553Z,6.80
2022-12-24T19:01:47.193Z,6.70
2022-12-24T19:04:17.488Z,6.70
2022-12-24T19:06:50.876Z,6.70
2022-12-24T19:09:21.228Z,6.70
2022-12-24T19:11:48.793Z,6.70
2022-12-24T19:14:16.351Z,6.70
2022-12-24T19:16:43.843Z,6.60
2022-12-24T19:19:12.594Z,6.60
2022-12-24T19:21:40.077Z,6.50
2022-12-24T19:24:10.813Z,6.40
2022-12-24T19:26:38.431Z,6.40
2022-12-24T19:29:06.032Z,6.40
2022-12-24T19:31:33.454Z,6.40
2022-12-24T19:34:00.997Z,6.30
2022-12-24T19:36:31.314Z,6.30
2022-12-24T19:38:59.431Z,6.20
2022-12-24T19:41:31.260Z,6.20
2022-12-24T19:44:02.159Z,6.10
2022-12-24T19:46:35.043Z,6.10
2022-12-24T19:49:07.198Z,6.00
2022-12-24T19:51:35.804Z,5.90
2022-12-24T19:54:04.721Z,6.00
2022-12-24T19:56:33.251Z,6.00
2022-12-24T19:59:03.774Z,6.00
2022-12-24T20:01:35.009Z,6.00
2022-12-24T20:04:03.221Z,6.00
2022-12-24T20:06:34.219Z,6.00
2022-12-24T20:09:05.613Z,6.00
2022-12-24T20:11:33.972Z,6.00
2022-12-24T20:14:04.082Z,6.00
2022-12-24T20:16:32.302Z,6.00
2022-12-24T20:19:06.341Z,6.00
2022-12-24T20:21:34.463Z,6.00
2022-12-24T20:24:02.497Z,6.00
2022-12-24T20:26:30.397Z,6.00
2022-12-24T20:28:58.128Z,5.90
2022-12-24T20:31:29.349Z,6.00
2022-12-24T20:33:58.244Z,6.10
2022-12-24T20:36:28.886Z,6.30
2022-12-24T20:38:57.139Z,6.30
2022-12-24T20:41:27.689Z,6.20
2022-12-24T20:43:55.128Z,6.20
2022-12-24T20:46:24.497Z,6.20
2022-12-24T20:48:52.173Z,6.00
2022-12-24T20:51:26.293Z,6.00
2022-12-24T20:53:56.529Z,6.10
2022-12-24T20:56:24.842Z,6.20
2022-12-24T20:58:52.525Z,6.10
2022-12-24T21:01:24.836Z,6.00
2022-12-24T21:03:54.029Z,6.20
2022-12-24T21:06:23.728Z,6.20
2022-12-24T21:08:52.896Z,6.20
2022-12-24T21:11:39.482Z,6.20
2022-12-24T21:14:07.687Z,6.10
2022-12-24T21:16:37.201Z,6.00
2022-12-24T21:19:07.242Z,6.00
2022-12-24T21:21:36.234Z,6.00
2022-12-24T21:24:04.957Z,6.00
2022-12-24T21:26:33.399Z,6.00
2022-12-24T21:29:01.754Z,5.90
2022-12-24T21:31:29.604Z,5.90
2022-12-24T21:33:57.963Z,5.90
2022-12-24T21:36:25.529Z,5.90
2022-12-24T21:38:54.572Z,5.90
2022-12-24T21:41:26.251Z,5.90
2022-12-24T21:43:53.956Z,5.80
2022-12-24T21:46:25.445Z,5.80
2022-12-24T21:49:13.396Z,5.70
2022-12-24T21:51:41.835Z,5.60
2022-12-24T21:54:25.475Z,5.70
2022-12-24T21:57:15.789Z,5.70
2022-12-24T21:59:43.772Z,5.70
2022-12-24T22:02:14.551Z,5.70
2022-12-24T22:04:42.940Z,5.70
2022-12-24T22:07:43.550Z,5.70
2022-12-24T22:10:31.915Z,5.70
2022-12-24T22:13:00.616Z,5.60
2022-12-24T22:15:28.305Z,5.70
2022-12-24T22:17:55.717Z,5.60
2022-12-24T22:20:23.312Z,5.70
2022-12-24T22:22:50.816Z,5.60
2022-12-24T22:25:18.524Z,5.60
2022-12-24T22:27:45.965Z,5.60
2022-12-24T22:30:13.576Z,5.60
2022-12-24T22:32:40.997Z,5.60
2022-12-24T22:35:08.916Z,5.60
2022-12-24T22:37:36.652Z,5.60
2022-12-24T22:40:04.669Z,5.50
2022-12-24T22:42:33.569Z,5.50
2022-12-24T22:45:02.836Z,5.40
2022-12-24T22:47:30.613Z,5.40
2022-12-24T22:49:58.060Z,5.40
2022-12-24T22:52:25.531Z,5.40
2022-12-24T22:54:53.030Z,5.40
2022-12-24T22:57:20.649Z,5.40
2022-12-24T22:59:49.467Z,5.50
2022-12-24T23:02:20.700Z,5.60
2022-12-24T23:04:51.504Z,5.60
2022-12-24T23:07:18.929Z,5.70
2022-12-24T23:09:46.401Z,5.70
2022-12-24T23:12:13.869Z,5.70
2022-12-24T23:14:56.440Z,5.70
2022-12-24T23:17:23.869Z,5.80
2022-12-24T23:19:51.334Z,5.80
2022-12-24T23:22:18.770Z,5.90
2022-12-24T23:24:46.262Z,5.90
2022-12-24T23:27:13.794Z,6.00
2022-12-24T23:29:41.214Z,6.00
2022-12-24T23:32:08.713Z,6.00
2022-12-24T23:34:36.142Z,6.10
2022-12-24T23:37:03.665Z,6.10
2022-12-24T23:39:31.133Z,6.10
2022-12-24T23:41:58.594Z,6.20
2022-12-24T23:44:32.023Z,6.20
2022-12-24T23:47:00.338Z,6.30
2022-12-24T23:49:27.867Z,6.20
2022-12-24T23:51:55.425Z,6.20
2022-12-24T23:54:22.822Z,6.30
2022-12-24T23:56:50.240Z,6.30
2022-12-24T23:59:17.674Z,6.30
